Time;durP1;ratioP1;P1;durP2;ratioP2;P2;SDS_P1;SDS_P2;PMS_P1;PMS_P2;Temp;Humidity;BMP_temperature;BMP_pressure;BME280_temperature;BME280_humidity;BME280_pressure;Samples;Min_cycle;Max_cycle;Signal;HPM_P1;HPM_P2
2022/12/31 00:00:49;;;;;;;4.43;2.70;;;;;;;11.65;100.00;100105.97;5073714;28;20052;-55
2022/12/31 00:03:19;;;;;;;6.90;2.42;;;;;;;11.69;100.00;100108.38;5074306;28;20439;-54
2022/12/31 00:05:47;;;;;;;4.70;2.13;;;;;;;11.70;100.00;100110.03;5074378;28;20404;-55
2022/12/31 00:08:15;;;;;;;4.75;2.20;;;;;;;11.70;100.00;100121.41;5072954;28;20057;-55
2022/12/31 00:10:44;;;;;;;3.55;2.00;;;;;;;11.72;100.00;100114.22;5070266;28;20094;-56
2022/12/31 00:13:13;;;;;;;4.30;2.35;;;;;;;11.69;100.00;100116.28;5071882;28;20109;-55
2022/12/31 00:15:42;;;;;;;3.58;1.70;;;;;;;11.74;100.00;100117.56;5073952;28;20048;-55
2022/12/31 00:18:12;;;;;;;3.13;1.60;;;;;;;11.74;100.00;100132.53;5072533;28;20049;-55
2022/12/31 00:20:42;;;;;;;4.45;1.42;;;;;;;11.77;100.00;100129.66;5073856;28;20040;-56
2022/12/31 00:23:11;;;;;;;2.00;1.13;;;;;;;11.74;100.00;100124.63;5072148;28;20516;-56
2022/12/31 00:25:39;;;;;;;2.33;1.13;;;;;;;11.71;100.00;100127.50;5070131;28;20057;-56
2022/12/31 00:28:07;;;;;;;4.95;1.20;;;;;;;11.71;100.00;100128.38;5073205;28;20437;-56
2022/12/31 00:30:35;;;;;;;2.65;1.20;;;;;;;11.69;100.00;100134.72;5073213;28;20044;-56
2022/12/31 00:33:03;;;;;;;2.15;1.20;;;;;;;11.74;100.00;100133.38;5073258;28;20041;-56
2022/12/31 00:35:33;;;;;;;2.35;1.10;;;;;;;11.71;100.00;100123.09;5073134;28;20041;-55
2022/12/31 00:38:03;;;;;;;3.30;1.60;;;;;;;11.73;100.00;100126.44;5073687;28;20048;-56
2022/12/31 00:40:31;;;;;;;2.00;1.10;;;;;;;11.75;100.00;100134.22;5073531;28;20059;-56
2022/12/31 00:42:59;;;;;;;4.45;1.10;;;;;;;11.75;100.00;100134.22;5069947;28;20045;-56
2022/12/31 00:45:27;;;;;;;1.67;0.95;;;;;;;11.74;100.00;100129.88;5071063;28;20037;-56
2022/12/31 00:47:55;;;;;;;3.20;1.20;;;;;;;11.76;100.00;100130.63;5071525;28;20507;-56
2022/12/31 00:50:24;;;;;;;1.50;1.10;;;;;;;11.75;100.00;100124.53;5070555;28;20066;-56
2022/12/31 00:52:52;;;;;;;3.88;1.45;;;;;;;11.76;100.00;100151.69;5072263;28;20059;-56
2022/12/31 00:55:21;;;;;;;4.93;1.50;;;;;;;11.71;100.00;100149.44;5073323;28;20047;-56
2022/12/31 00:57:49;;;;;;;1.60;1.10;;;;;;;11.65;100.00;100140.22;5073157;28;20127;-56
2022/12/31 01:00:18;;;;;;;3.35;1.00;;;;;;;11.60;100.00;100137.13;5073188;28;20040;-55
2022/12/31 01:02:46;;;;;;;2.30;1.02;;;;;;;11.58;100.00;100138.22;5073421;28;20458;-58
2022/12/31 01:05:14;;;;;;;1.60;1.10;;;;;;;11.56;100.00;100143.63;5073082;28;20621;-57
2022/12/31 01:07:43;;;;;;;2.92;1.35;;;;;;;11.56;100.00;100151.50;5069884;28;20037;-56
2022/12/31 01:11:17;;;;;;;2.33;1.45;;;;;;;11.50;100.00;100146.72;5070424;28;20575;-56
2022/12/31 01:13:04;;;;;;;3.95;1.70;;;;;;;11.49;100.00;100145.91;5071545;28;20119;-56
2022/12/31 01:15:34;;;;;;;3.63;1.65;;;;;;;11.43;100.00;100146.38;5069977;28;20083;-55
2022/12/31 01:18:02;;;;;;;5.32;1.83;;;;;;;11.37;100.00;100146.03;5067229;28;20052;-55
2022/12/31 01:20:30;;;;;;;3.70;1.70;;;;;;;11.40;100.00;100157.16;5072408;28;20078;-56
2022/12/31 01:22:58;;;;;;;3.72;1.77;;;;;;;11.29;100.00;100165.06;5072612;28;20049;-56
2022/12/31 01:25:27;;;;;;;3.67;1.70;;;;;;;11.27;100.00;100153.81;5070717;28;20048;-56
2022/12/31 01:27:55;;;;;;;4.47;2.13;;;;;;;11.30;100.00;100149.16;5068982;28;20048;-56
2022/12/31 01:30:24;;;;;;;3.17;1.60;;;;;;;11.30;100.00;100141.25;5072172;28;20093;-58
2022/12/31 01:32:52;;;;;;;5.60;1.77;;;;;;;11.32;100.00;100154.31;5072796;28;20547;-58
2022/12/31 01:35:20;;;;;;;4.03;1.88;;;;;;;11.26;100.00;100131.94;5071484;28;20165;-58
2022/12/31 01:37:48;;;;;;;5.07;1.98;;;;;;;11.24;100.00;100131.22;5070311;28;20060;-58
2022/12/31 01:40:17;;;;;;;4.35;1.70;;;;;;;11.24;100.00;100131.22;5070287;28;20123;-58
2022/12/31 01:42:45;;;;;;;4.35;1.70;;;;;;;11.24;100.00;100119.84;5070192;28;20059;-58
2022/12/31 01:45:14;;;;;;;4.95;1.65;;;;;;;11.25;100.00;100129.44;5072633;28;20052;-58
2022/12/31 01:47:47;;;;;;;2.97;1.33;;;;;;;11.29;100.00;100129.06;5072526;28;20049;-58
2022/12/31 01:50:18;;;;;;;3.92;1.38;;;;;;;11.27;100.00;100138.84;5072472;28;20051;-59
2022/12/31 01:52:49;;;;;;;2.58;1.35;;;;;;;11.24;100.00;100144.38;5072927;28;20052;-58
2022/12/31 01:55:21;;;;;;;4.20;1.60;;;;;;;11.27;100.00;100148.56;5072434;28;20051;-58
2022/12/31 01:57:52;;;;;;;3.80;1.58;;;;;;;11.19;100.00;100159.69;5072495;28;20064;-58
2022/12/31 02:00:20;;;;;;;3.42;1.60;;;;;;;11.24;100.00;100148.81;5072492;28;20052;-58
2022/12/31 02:02:50;;;;;;;4.00;1.60;;;;;;;11.23;100.00;100149.75;5071045;28;20155;-58
2022/12/31 02:05:23;;;;;;;5.68;1.60;;;;;;;11.20;100.00;100153.47;5072623;28;20083;-58
2022/12/31 02:07:53;;;;;;;4.18;1.77;;;;;;;11.21;100.00;100159.56;5070425;28;20507;-58
2022/12/31 02:10:21;;;;;;;2.53;1.40;;;;;;;11.15;100.00;100161.72;5070022;28;20051;-57
2022/12/31 02:12:50;;;;;;;3.95;1.45;;;;;;;11.19;100.00;100164.94;5072762;28;20044;-58
2022/12/31 02:15:24;;;;;;;3.50;1.70;;;;;;;11.16;100.00;100183.63;5071307;28;20503;-58
2022/12/31 02:18:02;;;;;;;4.07;1.85;;;;;;;11.15;100.00;100185.41;5068550;28;20086;-58
2022/12/31 02:21:04;;;;;;;4.47;1.88;;;;;;;11.09;100.00;100193.78;5071580;28;20040;-56
2022/12/31 02:24:05;;;;;;;4.40;1.90;;;;;;;11.12;100.00;100198.78;5070989;28;20064;-58
2022/12/31 02:26:59;;;;;;;5.50;1.90;;;;;;;11.11;100.00;100209.44;5062827;28;20044;-58
2022/12/31 02:30:09;;;;;;;3.78;2.03;;;;;;;11.06;100.00;100169.50;5062137;28;20125;-58
2022/12/31 02:32:58;;;;;;;4.95;1.90;;;;;;;11.07;100.00;100165.91;5076312;28;20098;-58
2022/12/31 02:35:32;;;;;;;4.40;1.98;;;;;;;11.07;100.00;100140.44;5072403;28;20452;-56
2022/12/31 02:38:05;;;;;;;3.92;1.50;;;;;;;11.03;100.00;100133.75;5073845;28;20062;-54
2022/12/31 02:40:35;;;;;;;2.88;1.27;;;;;;;11.04;100.00;100138.03;5074150;28;20064;-57
2022/12/31 02:43:04;;;;;;;4.40;1.60;;;;;;;11.05;100.00;100142.34;5073285;28;20123;-58
2022/12/31 02:45:36;;;;;;;3.70;1.13;;;;;;;11.05;100.00;100139.72;5075047;28;20056;-58
2022/12/31 02:48:33;;;;;;;3.30;1.10;;;;;;;11.06;100.00;100122.16;5075309;28;20056;-58
2022/12/31 02:51:13;;;;;;;3.25;1.20;;;;;;;11.03;100.00;100131.13;5075434;28;20446;-58
2022/12/31 02:54:14;;;;;;;4.05;1.20;;;;;;;11.02;100.00;100129.44;5073487;28;20052;-58
2022/12/31 02:56:49;;;;;;;2.92;1.42;;;;;;;11.03;100.00;100149.53;5071079;28;20056;-58
2022/12/31 03:02:15;;;;;;;1.88;1.30;;;;;;;10.95;100.00;100147.50;5074698;28;20045;-58
2022/12/31 03:04:48;;;;;;;4.32;1.92;;;;;;;10.91;100.00;100143.44;5074841;28;20094;-59
2022/12/31 03:07:20;;;;;;;4.57;1.90;;;;;;;10.81;100.00;100143.31;5073719;28;20511;-60
2022/12/31 03:09:49;;;;;;;6.18;2.03;;;;;;;10.86;100.00;100148.19;5071563;28;20057;-55
2022/12/31 03:15:18;;;;;;;5.63;1.92;;;;;;;10.85;100.00;100143.06;5075083;28;20045;-54
2022/12/31 03:17:49;;;;;;;4.53;1.90;;;;;;;10.86;100.00;100150.00;5075245;28;20055;-53
2022/12/31 03:23:07;;;;;;;3.15;1.60;;;;;;;10.83;100.00;100154.53;5072442;28;20126;-58
2022/12/31 03:25:34;;;;;;;4.00;1.50;;;;;;;10.82;100.00;100157.28;5072772;28;20044;-58
2022/12/31 03:28:05;;;;;;;4.38;1.60;;;;;;;10.84;100.00;100150.13;5073857;28;20055;-55
2022/12/31 03:30:34;;;;;;;3.53;1.48;;;;;;;10.81;100.00;100160.88;5071711;28;20090;-54
2022/12/31 03:33:03;;;;;;;3.42;1.50;;;;;;;10.83;100.00;100161.59;5071323;28;20514;-55
2022/12/31 03:35:35;;;;;;;4.05;1.33;;;;;;;10.82;100.00;100167.81;5074030;28;20045;-55
2022/12/31 03:38:04;;;;;;;3.35;1.70;;;;;;;10.83;100.00;100159.78;5075017;28;20052;-58
2022/12/31 03:40:37;;;;;;;3.83;1.50;;;;;;;10.81;100.00;100161.72;5074383;28;20076;-58
2022/12/31 03:43:05;;;;;;;4.05;1.50;;;;;;;10.80;100.00;100169.72;5073339;28;20040;-58
2022/12/31 03:45:34;;;;;;;4.80;1.55;;;;;;;10.80;100.00;100170.56;5074326;28;20463;-57
2022/12/31 03:48:02;;;;;;;4.88;1.73;;;;;;;10.79;100.00;100168.06;5074462;28;20094;-57
2022/12/31 03:50:31;;;;;;;4.10;1.67;;;;;;;10.79;100.00;100158.34;5074429;28;20090;-57
2022/12/31 03:53:00;;;;;;;4.20;1.70;;;;;;;10.81;100.00;100150.34;5072902;28;20512;-55
2022/12/31 03:55:29;;;;;;;3.47;1.70;;;;;;;10.80;100.00;100156.59;5070896;28;20043;-54
2022/12/31 03:57:57;;;;;;;5.43;2.30;;;;;;;10.78;100.00;100161.97;5071809;28;20048;-55
2022/12/31 04:00:26;;;;;;;6.32;2.58;;;;;;;10.81;100.00;100166.97;5073941;28;20051;-54
2022/12/31 04:02:54;;;;;;;5.15;2.38;;;;;;;10.75;100.00;100172.69;5073703;28;20052;-53
2022/12/31 04:05:23;;;;;;;6.97;3.03;;;;;;;10.80;100.00;100165.28;5072500;28;20131;-53
2022/12/31 04:07:51;;;;;;;6.88;3.45;;;;;;;10.79;100.00;100171.50;5073742;28;20052;-54
2022/12/31 04:10:21;;;;;;;7.20;3.53;;;;;;;10.77;100.00;100165.53;5074137;28;20098;-54
2022/12/31 04:12:51;;;;;;;6.83;3.57;;;;;;;10.75;100.00;100169.25;5074241;28;20519;-55
2022/12/31 04:15:21;;;;;;;7.60;3.90;;;;;;;10.77;100.00;100167.31;5071024;28;20479;-54
2022/12/31 04:17:49;;;;;;;7.35;4.00;;;;;;;10.73;100.00;100165.88;5069207;28;20098;-55
2022/12/31 04:20:17;;;;;;;7.30;4.40;;;;;;;10.74;100.00;100165.75;5073798;28;20135;-54
2022/12/31 04:22:45;;;;;;;7.15;4.20;;;;;;;10.79;100.00;100168.06;5073735;28;20049;-55
2022/12/31 04:25:14;;;;;;;6.88;3.53;;;;;;;10.74;100.00;100151.78;5073661;28;20094;-54
2022/12/31 04:27:43;;;;;;;7.28;3.42;;;;;;;10.75;100.00;100156.09;5073769;28;20106;-55
2022/12/31 04:30:13;;;;;;;7.85;3.13;;;;;;;10.72;100.00;100148.44;5073460;28;20044;-54
2022/12/31 04:32:41;;;;;;;7.55;4.00;;;;;;;10.73;100.00;100152.72;5073098;28;20510;-54
2022/12/31 04:35:11;;;;;;;6.68;3.45;;;;;;;10.75;100.00;100156.09;5073434;28;20090;-55
2022/12/31 04:37:39;;;;;;;6.97;3.80;;;;;;;10.76;100.00;100161.22;5073661;28;20054;-54
2022/12/31 04:40:09;;;;;;;7.88;3.50;;;;;;;10.79;100.00;100153.09;5073361;28;20373;-53
2022/12/31 04:42:37;;;;;;;6.97;3.70;;;;;;;10.78;100.00;100153.22;5073359;28;20553;-53
2022/12/31 04:45:08;;;;;;;7.28;3.58;;;;;;;10.79;100.00;100152.28;5073149;28;20567;-55
2022/12/31 04:47:36;;;;;;;6.93;3.42;;;;;;;10.82;100.00;100141.50;5072197;28;20057;-54
2022/12/31 04:50:05;;;;;;;6.45;3.40;;;;;;;10.78;100.00;100140.91;5073253;28;20045;-54
2022/12/31 04:52:33;;;;;;;7.75;3.50;;;;;;;10.78;100.00;100137.44;5070414;28;20465;-54
2022/12/31 04:55:10;;;;;;;5.53;3.13;;;;;;;10.77;100.00;100133.13;5070099;28;20053;-53
2022/12/31 04:57:38;;;;;;;6.00;3.22;;;;;;;10.79;100.00;100144.38;5071894;28;20048;-54
2022/12/31 05:00:09;;;;;;;5.85;3.15;;;;;;;10.75;100.00;100135.88;5072986;28;20450;-53
2022/12/31 05:02:37;;;;;;;4.43;2.63;;;;;;;10.79;100.00;100136.50;5072976;28;20654;-53
2022/12/31 05:05:06;;;;;;;4.35;2.30;;;;;;;10.80;100.00;100132.91;5070658;28;20045;-54
2022/12/31 05:07:34;;;;;;;4.05;2.10;;;;;;;10.79;100.00;100120.72;5069840;28;20044;-53
2022/12/31 05:10:02;;;;;;;3.63;1.92;;;;;;;10.80;100.00;100132.91;5072721;28;20492;-52
2022/12/31 05:12:31;;;;;;;3.15;1.75;;;;;;;10.82;100.00;100134.47;5073116;28;20376;-52
2022/12/31 05:14:59;;;;;;;2.85;1.80;;;;;;;10.81;100.00;100134.56;5073103;28;20548;-54
2022/12/31 05:17:29;;;;;;;5.00;2.30;;;;;;;10.81;100.00;100148.56;5072867;28;20062;-54
2022/12/31 05:19:57;;;;;;;4.60;2.22;;;;;;;10.85;100.00;100154.41;5072681;28;20419;-54
2022/12/31 05:22:30;;;;;;;2.95;1.90;;;;;;;10.85;100.00;100149.16;5072862;28;20036;-54
2022/12/31 05:24:59;;;;;;;3.20;1.95;;;;;;;10.90;100.00;100151.44;5072667;28;20044;-54
2022/12/31 05:27:29;;;;;;;2.35;1.50;;;;;;;10.87;100.00;100155.16;5071159;28;20395;-54
2022/12/31 05:29:58;;;;;;;1.95;1.27;;;;;;;10.87;100.00;100149.06;5069655;28;20388;-53
2022/12/31 05:32:26;;;;;;;1.63;1.25;;;;;;;10.87;100.00;100157.78;5071770;28;20549;-57
2022/12/31 05:34:56;;;;;;;1.55;0.85;;;;;;;10.90;100.00;100173.31;5072589;28;20055;-54
2022/12/31 05:37:24;;;;;;;1.85;0.90;;;;;;;10.98;100.00;100151.69;5070886;28;20564;-54
2022/12/31 05:39:52;;;;;;;1.25;0.73;;;;;;;10.98;100.00;100170.94;5068658;28;20044;-53
2022/12/31 05:42:21;;;;;;;1.45;0.60;;;;;;;10.99;100.00;100154.19;5070481;28;20045;-54
2022/12/31 05:44:49;;;;;;;0.60;0.45;;;;;;;11.04;100.00;100160.88;5072104;28;20098;-52
2022/12/31 05:47:18;;;;;;;0.40;0.40;;;;;;;11.05;100.00;100162.56;5071831;28;20056;-52
2022/12/31 05:49:46;;;;;;;1.05;0.63;;;;;;;11.03;100.00;100162.69;5060321;28;20048;-52
2022/12/31 05:52:16;;;;;;;0.80;0.70;;;;;;;11.04;100.00;100160.88;5056676;28;20048;-53
2022/12/31 05:54:44;;;;;;;0.85;0.60;;;;;;;11.03;100.00;100169.72;5055450;28;20507;-53
2022/12/31 05:57:12;;;;;;;0.95;0.80;;;;;;;11.07;100.00;100164.13;5051456;28;20605;-53
2022/12/31 05:59:40;;;;;;;1.02;0.70;;;;;;;11.09;100.00;100172.72;5057509;28;20041;-53
2022/12/31 06:02:08;;;;;;;0.93;0.60;;;;;;;11.13;100.00;100166.25;5056538;28;20036;-54
2022/12/31 06:04:37;;;;;;;0.40;0.40;;;;;;;11.10;100.00;100169.16;5054491;28;20032;-54
2022/12/31 06:07:05;;;;;;;0.68;0.60;;;;;;;11.10;100.00;100176.22;5054826;28;20068;-54
2022/12/31 06:09:34;;;;;;;0.85;0.52;;;;;;;11.08;100.00;100172.84;5057899;28;20044;-53
2022/12/31 06:12:02;;;;;;;0.50;0.50;;;;;;;11.10;100.00;100179.66;5057434;28;20150;-55
2022/12/31 06:14:33;;;;;;;0.63;0.60;;;;;;;11.11;100.00;100180.50;5057163;28;20068;-52
2022/12/31 06:17:01;;;;;;;0.50;0.50;;;;;;;11.12;100.00;100185.63;5057037;28;20049;-53
2022/12/31 06:19:30;;;;;;;1.30;0.60;;;;;;;11.09;100.00;100175.34;5052628;28;20128;-53
2022/12/31 06:21:58;;;;;;;1.52;0.60;;;;;;;11.12;100.00;100180.38;5057520;28;20075;-53
2022/12/31 06:24:26;;;;;;;0.80;0.70;;;;;;;11.13;100.00;100176.78;5055777;28;20036;-53
2022/12/31 06:26:56;;;;;;;0.82;0.70;;;;;;;11.15;100.00;100177.53;5059756;28;20102;-53
2022/12/31 06:29:24;;;;;;;1.30;0.73;;;;;;;11.19;100.00;100175.47;5049987;28;20045;-57
2022/12/31 06:31:52;;;;;;;1.75;0.93;;;;;;;11.20;100.00;100177.16;5053478;28;20466;-57
2022/12/31 06:34:20;;;;;;;0.90;0.77;;;;;;;11.24;100.00;100181.22;5056210;28;20041;-57
2022/12/31 06:36:48;;;;;;;0.60;0.60;;;;;;;11.32;100.00;100183.25;5055755;28;20083;-56
2022/12/31 06:39:16;;;;;;;1.52;0.73;;;;;;;11.33;100.00;100179.66;5052222;28;20420;-57
2022/12/31 06:41:45;;;;;;;0.85;0.70;;;;;;;11.39;100.00;100183.63;5056442;28;20552;-53
2022/12/31 06:44:15;;;;;;;1.40;1.10;;;;;;;11.44;100.00;100186.72;5061160;28;20052;-52
2022/12/31 06:46:43;;;;;;;1.00;0.68;;;;;;;11.53;100.00;100187.78;5058182;28;20490;-55
2022/12/31 06:49:11;;;;;;;1.25;0.68;;;;;;;11.61;100.00;100199.34;5055862;28;20051;-54
2022/12/31 06:51:39;;;;;;;2.85;0.93;;;;;;;11.70;100.00;100174.09;5059212;28;20044;-54
2022/12/31 06:54:08;;;;;;;1.38;0.90;;;;;;;11.71;100.00;100183.69;5071637;28;20045;-52
2022/12/31 06:56:36;;;;;;;1.65;0.90;;;;;;;11.81;100.00;100187.22;5065444;28;20045;-53
2022/12/31 06:59:05;;;;;;;4.13;1.60;;;;;;;11.82;100.00;100188.91;5048598;28;20044;-53
2022/12/31 07:01:51;;;;;;;1.67;1.10;;;;;;;11.83;100.00;100197.63;5053481;28;20048;-53
2022/12/31 07:04:44;;;;;;;1.63;0.85;;;;;;;11.84;100.00;100205.41;5066381;28;20554;-52
2022/12/31 07:07:21;;;;;;;1.75;1.00;;;;;;;11.89;100.00;100202.44;5051167;28;20060;-51
2022/12/31 07:09:59;;;;;;;3.45;1.15;;;;;;;11.87;100.00;100191.16;5052939;28;20049;-53
2022/12/31 07:12:38;;;;;;;1.95;0.95;;;;;;;11.87;100.00;100187.69;5059023;28;20526;-51
2022/12/31 07:15:14;;;;;;;2.40;1.00;;;;;;;11.91;100.00;100184.69;5058978;28;20052;-49
2022/12/31 07:17:53;;;;;;;1.63;1.23;;;;;;;11.91;100.00;100179.41;5054899;28;20049;-59
2022/12/31 07:20:22;;;;;;;3.75;1.30;;;;;;;11.91;100.00;100176.78;5051843;28;20513;-60
2022/12/31 07:22:50;;;;;;;2.40;1.25;;;;;;;11.93;100.00;100174.00;5068048;28;20110;-59
2022/12/31 07:25:22;;;;;;;4.38;1.60;;;;;;;11.97;100.00;100186.88;5060828;28;20098;-60
2022/12/31 07:28:05;;;;;;;5.15;1.52;;;;;;;11.99;100.00;100179.66;5060192;28;20339;-59
2022/12/31 07:30:42;;;;;;;3.88;1.75;;;;;;;11.99;100.00;100184.94;5059184;28;20033;-58
2022/12/31 07:33:24;;;;;;;4.70;1.70;;;;;;;12.00;100.00;100177.88;5057814;28;20051;-55
2022/12/31 07:36:04;;;;;;;2.55;1.63;;;;;;;12.02;100.00;100180.38;5052256;28;20504;-58
2022/12/31 07:38:37;;;;;;;5.93;2.10;;;;;;;12.04;100.00;100181.09;5060036;28;20115;-53
2022/12/31 07:41:13;;;;;;;4.45;1.98;;;;;;;12.06;100.00;100181.81;5059360;28;20107;-59
2022/12/31 07:43:53;;;;;;;6.63;2.50;;;;;;;12.09;100.00;100179.75;5057607;28;21833;-55
2022/12/31 07:46:30;;;;;;;6.03;2.33;;;;;;;12.11;100.00;100171.72;5059440;28;20041;-55
2022/12/31 07:49:00;;;;;;;5.22;2.10;;;;;;;12.13;100.00;100177.69;5058810;28;20040;-55
2022/12/31 07:51:29;;;;;;;4.55;1.63;;;;;;;12.16;100.00;100191.47;5057011;28;20049;-54
2022/12/31 07:53:57;;;;;;;4.18;1.60;;;;;;;12.16;100.00;100194.09;5057231;28;20036;-55
2022/12/31 07:56:25;;;;;;;4.18;1.60;;;;;;;12.18;100.00;100217.69;5059573;28;20984;-55
2022/12/31 07:59:05;;;;;;;8.20;1.40;;;;;;;12.24;100.00;100209.28;5056247;28;20085;-55
2022/12/31 08:01:40;;;;;;;5.50;1.63;;;;;;;12.32;100.00;100212.16;5049404;28;20052;-54
2022/12/31 08:04:21;;;;;;;5.80;1.20;;;;;;;12.30;100.00;100186.88;5060549;28;20040;-54
2022/12/31 08:06:59;;;;;;;1.88;0.70;;;;;;;12.31;100.00;100173.56;5054528;28;20403;-55
2022/12/31 08:09:41;;;;;;;1.45;0.80;;;;;;;12.34;100.00;100169.81;5060911;28;20495;-55
2022/12/31 08:12:10;;;;;;;3.40;1.00;;;;;;;12.38;100.00;100180.94;5058281;28;20037;-55
2022/12/31 08:14:44;;;;;;;1.85;1.00;;;;;;;12.44;100.00;100198.91;5058049;28;20128;-56
2022/12/31 08:17:13;;;;;;;2.20;1.15;;;;;;;12.45;100.00;100208.50;5056262;28;20040;-55
2022/12/31 08:19:44;;;;;;;2.90;1.05;;;;;;;12.48;100.00;100247.78;5058286;28;20037;-54
2022/12/31 08:22:39;;;;;;;7.05;1.60;;;;;;;12.48;100.00;100267.06;5067720;28;20044;-55
2022/12/31 08:25:16;;;;;;;2.42;0.75;;;;;;;12.35;100.00;100242.66;5071138;28;20499;-56
2022/12/31 08:28:00;;;;;;;3.25;0.98;;;;;;;12.25;100.00;100245.22;5050369;28;20045;-56
2022/12/31 08:30:39;;;;;;;2.78;0.60;;;;;;;12.21;100.00;100241.16;5053886;28;20044;-56
2022/12/31 08:33:14;;;;;;;2.00;0.70;;;;;;;12.11;100.00;100256.06;5060415;28;20049;-55
2022/12/31 08:35:58;;;;;;;2.85;1.05;;;;;;;12.06;100.00;100258.22;5073444;28;20051;-56
2022/12/31 08:38:34;;;;;;;2.25;0.68;;;;;;;12.05;100.00;100272.38;5073972;28;20045;-56
2022/12/31 08:41:15;;;;;;;3.13;1.02;;;;;;;12.05;100.00;100262.66;5073517;28;20064;-55
2022/12/31 08:43:55;;;;;;;3.10;1.00;;;;;;;12.03;100.00;100277.75;5071306;28;20483;-56
2022/12/31 08:46:35;;;;;;;3.42;0.93;;;;;;;12.03;100.00;100285.66;5068438;28;20075;-57
2022/12/31 08:49:04;;;;;;;3.28;1.00;;;;;;;12.05;100.00;100277.63;5075254;28;20044;-55
2022/12/31 08:51:34;;;;;;;1.83;0.55;;;;;;;12.03;100.00;100290.13;5085848;28;20442;-54
2022/12/31 08:54:03;;;;;;;1.80;0.75;;;;;;;12.05;100.00;100307.44;5073358;28;20442;-54
2022/12/31 08:56:34;;;;;;;3.17;0.80;;;;;;;12.07;100.00;100313.47;5073318;28;20491;-55
2022/12/31 08:59:23;;;;;;;1.35;0.70;;;;;;;12.08;100.00;100338.84;5073173;28;20049;-55
2022/12/31 09:02:20;;;;;;;3.75;0.80;;;;;;;12.06;100.00;100332.03;5069849;28;20048;-54
2022/12/31 09:04:59;;;;;;;7.10;1.00;;;;;;;12.09;100.00;100316.81;5069521;28;20446;-55
2022/12/31 09:07:35;;;;;;;2.70;1.00;;;;;;;12.08;100.00;100332.72;5073403;28;20044;-54
2022/12/31 09:10:14;;;;;;;2.95;1.13;;;;;;;12.09;100.00;100347.59;5070435;28;20052;-54
2022/12/31 09:12:52;;;;;;;3.28;0.88;;;;;;;12.10;100.00;100359.81;5068925;28;20055;-55
2022/12/31 09:15:26;;;;;;;4.13;1.20;;;;;;;12.09;100.00;100363.41;5072320;28;20523;-55
2022/12/31 09:17:55;;;;;;;3.05;1.30;;;;;;;12.12;100.00;100357.88;5072761;28;20048;-55
2022/12/31 09:20:26;;;;;;;3.13;1.05;;;;;;;12.12;100.00;100357.88;5072859;28;20053;-55
2022/12/31 09:23:13;;;;;;;1.95;0.90;;;;;;;12.16;100.00;100359.31;5071112;28;20049;-52
2022/12/31 09:25:52;;;;;;;4.63;1.08;;;;;;;12.20;100.00;100373.94;5069045;28;20072;-51
2022/12/31 09:28:37;;;;;;;3.28;1.30;;;;;;;12.24;100.00;100372.72;5080581;28;20113;-54
2022/12/31 09:31:11;;;;;;;1.63;1.00;;;;;;;12.32;100.00;100380.88;5070112;28;20052;-54
2022/12/31 09:33:45;;;;;;;4.13;1.30;;;;;;;12.30;100.00;100376.69;5068064;28;20123;-54
2022/12/31 09:36:19;;;;;;;4.70;2.33;;;;;;;12.34;100.00;100383.41;5070170;28;20127;-54
2022/12/31 09:38:59;;;;;;;4.18;1.55;;;;;;;12.38;100.00;100386.59;5061223;28;20495;-52
2022/12/31 09:41:48;;;;;;;3.80;1.30;;;;;;;12.40;100.00;100374.97;5067231;28;20084;-53
2022/12/31 09:44:49;;;;;;;1.95;1.10;;;;;;;12.42;100.00;100385.41;5070856;28;20418;-51
2022/12/31 09:47:52;;;;;;;3.50;1.33;;;;;;;12.47;100.00;100391.16;5052196;28;20053;-51
2022/12/31 09:50:50;;;;;;;4.03;1.25;;;;;;;12.56;100.00;100381.69;5050624;28;20045;-53
2022/12/31 09:53:32;;;;;;;4.97;1.40;;;;;;;12.64;100.00;100379.25;5049000;28;20037;-55
2022/12/31 09:56:05;;;;;;;6.10;2.20;;;;;;;12.79;100.00;100382.44;5066245;28;20059;-59
2022/12/31 09:58:42;;;;;;;7.22;1.92;;;;;;;12.85;100.00;100371.38;5072720;28;20507;-59
2022/12/31 10:01:23;;;;;;;8.52;2.30;;;;;;;13.02;100.00;100370.81;5072017;28;20056;-59
2022/12/31 10:04:33;;;;;;;5.93;1.50;;;;;;;13.10;100.00;100377.25;5072077;28;20045;-59
2022/12/31 10:07:20;;;;;;;6.93;1.70;;;;;;;13.17;100.00;100387.19;5071961;28;20553;-59
2022/12/31 10:10:00;;;;;;;5.53;1.50;;;;;;;13.23;100.00;100385.84;5072082;28;20559;-59
2022/12/31 10:12:46;;;;;;;5.13;1.40;;;;;;;13.26;100.00;100397.94;5072210;28;20056;-59
2022/12/31 10:15:53;;;;;;;6.85;1.75;;;;;;;13.26;100.00;100396.13;5076962;28;20033;-58
2022/12/31 10:18:35;;;;;;;6.13;1.45;;;;;;;13.32;100.00;100390.34;5070082;28;20044;-59
2022/12/31 10:21:19;;;;;;;6.18;1.30;;;;;;;13.37;100.00;100391.81;5053176;28;20053;-59
2022/12/31 10:23:58;;;;;;;4.63;1.38;;;;;;;13.43;100.00;100394.75;5066114;28;20048;-59
2022/12/31 10:26:45;;;;;;;2.97;1.10;;;;;;;13.49;100.00;100378.38;5071233;28;20054;-59
2022/12/31 10:29:36;;;;;;;3.72;1.40;;;;;;;13.50;100.00;100395.09;5072035;28;20115;-59
2022/12/31 10:32:16;;;;;;;4.30;1.38;;;;;;;13.53;100.00;100393.00;5078809;28;20048;-58
2022/12/31 10:34:53;;;;;;;6.95;1.70;;;;;;;13.52;100.00;100383.44;5088732;28;20479;-58
2022/12/31 10:37:28;;;;;;;4.28;1.60;;;;;;;13.54;100.00;100385.94;5090000;28;20456;-59
2022/12/31 10:40:07;;;;;;;4.90;1.40;;;;;;;13.58;100.00;100378.56;5068574;28;20057;-59
2022/12/31 10:43:17;;;;;;;6.68;1.40;;;;;;;13.64;100.00;100386.81;5070814;28;20079;-58
2022/12/31 10:46:24;;;;;;;5.88;1.38;;;;;;;13.63;100.00;100382.50;5075613;28;20045;-59
2022/12/31 10:49:28;;;;;;;4.60;1.27;;;;;;;13.71;100.00;100373.91;5075564;28;20045;-58
2022/12/31 10:52:39;;;;;;;5.47;1.70;;;;;;;13.75;100.00;100377.97;5071936;28;20060;-58
2022/12/31 10:55:55;;;;;;;5.25;1.60;;;;;;;13.74;100.00;100378.91;5074810;28;20048;-58
2022/12/31 10:58:55;;;;;;;7.32;2.63;;;;;;;13.76;100.00;100392.03;5075436;28;20109;-58
2022/12/31 11:01:36;;;;;;;7.97;2.15;;;;;;;13.73;100.00;100381.69;5074203;28;20487;-53
2022/12/31 11:04:45;;;;;;;5.57;2.20;;;;;;;13.74;100.00;100394.78;5075199;28;20056;-54
2022/12/31 11:07:41;;;;;;;5.60;1.83;;;;;;;13.78;100.00;100384.78;5041812;28;20060;-53
2022/12/31 11:10:52;;;;;;;5.18;1.67;;;;;;;13.79;100.00;100387.28;5075180;28;20106;-54
2022/12/31 11:13:58;;;;;;;6.78;2.00;;;;;;;13.76;100.00;100392.03;5073614;28;20048;-54
2022/12/31 11:16:38;;;;;;;6.50;2.42;;;;;;;13.77;100.00;100380.47;5070847;28;20048;-52
2022/12/31 11:19:17;;;;;;;5.30;1.70;;;;;;;13.78;100.00;100380.34;5074670;28;20116;-54
2022/12/31 11:22:09;;;;;;;6.20;1.50;;;;;;;13.79;100.00;100378.53;5074467;28;20056;-53
2022/12/31 11:24:57;;;;;;;7.72;1.70;;;;;;;13.82;100.00;100386.19;5072158;28;20564;-53
2022/12/31 11:27:41;;;;;;;5.22;1.88;;;;;;;13.87;100.00;100373.44;5072129;28;20127;-53
2022/12/31 11:30:21;;;;;;;6.28;2.15;;;;;;;13.91;100.00;100374.84;5072895;28;20044;-56
2022/12/31 11:33:05;;;;;;;9.63;2.00;;;;;;;13.92;100.00;100370.38;5069553;28;20056;-53
2022/12/31 11:35:49;;;;;;;6.05;1.67;;;;;;;13.95;100.00;100372.78;5074380;28;20040;-54
2022/12/31 11:38:23;;;;;;;8.07;1.98;;;;;;;13.97;100.00;100382.22;5074359;28;20037;-55
2022/12/31 11:41:03;;;;;;;6.00;2.00;;;;;;;13.99;100.00;100388.22;5074688;28;20048;-54
2022/12/31 11:43:37;;;;;;;8.60;2.03;;;;;;;13.99;100.00;100393.50;5106555;28;20048;-53
2022/12/31 11:46:38;;;;;;;7.35;2.00;;;;;;;14.07;100.00;100397.28;5075060;28;20071;-59
2022/12/31 11:49:24;;;;;;;8.63;2.10;;;;;;;14.08;100.00;100399.78;5074486;28;20086;-58
2022/12/31 11:52:07;;;;;;;5.75;1.50;;;;;;;14.07;100.00;100379.63;5072691;28;20051;-59
2022/12/31 11:55:03;;;;;;;7.60;1.50;;;;;;;14.20;100.00;100382.03;5071131;28;20068;-59
2022/12/31 11:57:36;;;;;;;6.72;1.60;;;;;;;14.22;100.00;100377.47;5072443;28;20097;-59
2022/12/31 12:00:08;;;;;;;;;;;;;;;14.24;100.00;100383.44;5074522;28;20070;-59
2022/12/31 12:02:41;;;;;;;7.10;2.10;;;;;;;14.30;100.00;100390.00;5074002;28;19969;-59